Terminal Aerodrome Forecast
Issued by NWS Shreveport, LA

Home | Current Version | Previous Version | Text Only | Print | Product List | Glossary On
Versions: 1 2 3 4 5 6 7 8 9 10 11 12 13 14 15 16
000
FTUS44 KSHV 192300
TAFMLU
TAF
KMLU 192336Z 2000/2024 VRB02KT P6SM SKC
      TEMPO 2011/2013 5SM BR SKC
     FM201700 VRB05KT P6SM FEW050=

USA.gov is the U.S. government's official web portal to all federal, state and local government web resources and services.